createdAt,value
2019-02-22T00:01:44.946Z,7.07
2019-02-22T00:03:51.075Z,6.47
2019-02-22T00:05:57.246Z,5.70
2019-02-22T00:08:03.415Z,8.70
2019-02-22T00:10:09.579Z,6.83
2019-02-22T00:12:15.739Z,7.83
2019-02-22T00:14:21.901Z,5.80
2019-02-22T00:16:28.141Z,6.83
2019-02-22T00:18:34.322Z,5.93
2019-02-22T00:20:41.596Z,8.03
2019-02-22T00:22:47.861Z,3.13
2019-02-22T00:24:54.015Z,5.30
2019-02-22T00:27:00.163Z,6.93
2019-02-22T00:29:06.402Z,6.97
2019-02-22T00:31:12.588Z,5.43
2019-02-22T00:33:18.854Z,5.77
2019-02-22T00:35:26.231Z,3.73
2019-02-22T00:37:32.609Z,3.07
2019-02-22T00:42:02.411Z,5.53
2019-02-22T00:44:08.572Z,6.90
2019-02-22T00:46:14.643Z,8.97
2019-02-22T00:48:20.905Z,7.43
2019-02-22T00:50:27.046Z,5.70
2019-02-22T00:52:34.062Z,4.00
2019-02-22T00:54:40.411Z,7.60
2019-02-22T00:56:46.655Z,7.43
2019-02-22T00:58:52.923Z,7.23
2019-02-22T01:00:59.064Z,4.80
2019-02-22T01:03:05.225Z,3.90
2019-02-22T01:05:11.379Z,5.10
2019-02-22T01:07:17.446Z,8.10
2019-02-22T01:09:23.688Z,4.80
2019-02-22T01:11:29.740Z,7.23
2019-02-22T01:13:36.012Z,5.60
2019-02-22T01:15:42.180Z,8.40
2019-02-22T01:17:48.429Z,6.67
2019-02-22T01:19:54.588Z,10.90
2019-02-22T01:22:02.380Z,7.20
2019-02-22T01:24:09.135Z,6.17
2019-02-22T01:26:16.667Z,6.83
2019-02-22T01:28:25.892Z,5.40
2019-02-22T01:30:32.239Z,4.43
2019-02-22T01:32:38.391Z,6.63
2019-02-22T01:34:44.559Z,7.00
2019-02-22T01:36:50.710Z,8.20
2019-02-22T01:38:56.880Z,7.80
2019-02-22T01:41:03.133Z,8.63
2019-02-22T01:43:09.407Z,4.43
2019-02-22T01:45:15.651Z,5.67
2019-02-22T01:47:21.814Z,6.03
2019-02-22T01:49:28.072Z,7.73
2019-02-22T01:51:34.329Z,5.60
2019-02-22T01:53:40.591Z,5.33
2019-02-22T01:55:46.649Z,5.83
2019-02-22T01:57:52.797Z,5.73
2019-02-22T01:59:59.053Z,5.70
2019-02-22T02:02:05.312Z,3.87
2019-02-22T02:04:11.698Z,2.57
2019-02-22T02:06:17.939Z,3.30
2019-02-22T02:08:24.217Z,2.33
2019-02-22T02:10:30.488Z,5.33
2019-02-22T02:12:36.724Z,4.97
2019-02-22T02:14:42.977Z,5.50
2019-02-22T02:16:49.148Z,5.00
2019-02-22T02:18:55.200Z,5.13
2019-02-22T02:21:02.293Z,4.33
2019-02-22T02:23:08.443Z,3.10
2019-02-22T02:25:14.575Z,5.30
2019-02-22T02:27:20.741Z,3.97
2019-02-22T02:29:27.320Z,4.70
2019-02-22T02:31:33.566Z,4.87
2019-02-22T02:33:40.176Z,2.87
2019-02-22T02:35:46.835Z,4.37
2019-02-22T02:37:53.285Z,6.33
2019-02-22T02:39:59.765Z,3.83
2019-02-22T02:42:06.278Z,2.87
2019-02-22T02:44:12.586Z,5.17
2019-02-22T02:46:18.756Z,3.60
2019-02-22T02:48:24.996Z,4.63
2019-02-22T02:50:32.487Z,5.63
2019-02-22T02:52:39.084Z,4.37
2019-02-22T02:54:45.737Z,3.37
2019-02-22T02:56:51.972Z,4.87
2019-02-22T02:58:58.235Z,7.40
2019-02-22T03:01:04.399Z,6.13
2019-02-22T03:03:10.632Z,8.27
2019-02-22T03:05:16.915Z,6.07
2019-02-22T03:07:42.625Z,7.73
2019-02-22T03:09:48.694Z,4.67
2019-02-22T03:11:54.951Z,3.40
2019-02-22T03:14:01.221Z,6.87
2019-02-22T03:16:07.461Z,7.97
2019-02-22T03:18:13.635Z,4.40
2019-02-22T03:20:19.879Z,4.37
2019-02-22T03:22:27.069Z,5.10
2019-02-22T03:24:33.416Z,6.13
2019-02-22T03:26:39.705Z,5.30
2019-02-22T03:28:45.948Z,4.37
2019-02-22T03:30:52.149Z,5.37
2019-02-22T03:32:58.465Z,8.07
2019-02-22T03:35:05.856Z,5.97
2019-02-22T03:37:11.992Z,2.90
2019-02-22T03:39:18.179Z,6.27
2019-02-22T03:41:32.394Z,6.80
2019-02-22T03:43:32.319Z,5.77
2019-02-22T03:45:38.479Z,3.53
2019-02-22T03:47:44.541Z,7.20
2019-02-22T03:49:50.691Z,7.27
2019-02-22T03:51:56.858Z,5.70
2019-02-22T03:54:03.100Z,5.37
2019-02-22T03:56:09.268Z,5.10
2019-02-22T03:58:16.116Z,3.87
2019-02-22T04:00:22.200Z,4.47
2019-02-22T04:02:30.008Z,4.03
2019-02-22T04:04:36.155Z,1.77
2019-02-22T04:06:42.445Z,6.03
2019-02-22T04:08:48.792Z,5.73
2019-02-22T04:10:55.144Z,4.27
2019-02-22T04:13:01.421Z,7.27
2019-02-22T04:15:10.836Z,4.00
2019-02-22T04:17:16.986Z,4.57
2019-02-22T04:19:23.042Z,4.27
2019-02-22T04:21:29.199Z,5.03
2019-02-22T04:23:35.296Z,6.20
2019-02-22T04:25:41.411Z,8.87
2019-02-22T04:27:47.613Z,2.50
2019-02-22T04:29:53.935Z,4.07
2019-02-22T04:32:00.093Z,5.57
2019-02-22T04:34:06.362Z,5.33
2019-02-22T04:36:12.493Z,6.17
2019-02-22T04:38:18.660Z,4.33
2019-02-22T04:40:24.824Z,6.77
2019-02-22T04:42:31.010Z,3.07
2019-02-22T04:44:37.251Z,3.57
2019-02-22T04:46:43.417Z,5.30
2019-02-22T04:48:49.663Z,3.93
2019-02-22T04:50:55.919Z,5.03
2019-02-22T04:53:02.186Z,3.47
2019-02-22T04:55:08.340Z,3.53
2019-02-22T04:57:14.620Z,6.60
2019-02-22T04:59:21.063Z,3.90
2019-02-22T05:01:27.220Z,2.60
2019-02-22T05:03:33.484Z,4.60
2019-02-22T05:05:39.958Z,10.43
2019-02-22T05:07:46.197Z,4.87
2019-02-22T05:09:53.358Z,3.30
2019-02-22T05:12:10.489Z,6.03
2019-02-22T05:14:07.958Z,7.27
2019-02-22T05:16:14.217Z,4.70
2019-02-22T05:18:20.490Z,5.37
2019-02-22T05:20:26.737Z,7.87
2019-02-22T05:22:33.000Z,5.50
2019-02-22T05:24:39.154Z,5.97
2019-02-22T05:26:45.207Z,7.73
2019-02-22T05:28:51.382Z,4.97
2019-02-22T05:30:57.542Z,8.00
2019-02-22T05:33:03.712Z,5.67
2019-02-22T05:35:09.929Z,5.73
2019-02-22T05:37:16.108Z,8.23
2019-02-22T05:39:22.261Z,6.83
2019-02-22T05:41:28.534Z,5.47
2019-02-22T05:43:34.789Z,5.03
2019-02-22T05:45:41.041Z,6.90
2019-02-22T05:47:47.301Z,4.87
2019-02-22T05:49:53.463Z,8.40
2019-02-22T05:51:59.712Z,7.93
2019-02-22T05:54:05.863Z,5.87
2019-02-22T05:56:12.038Z,5.63
2019-02-22T05:58:18.290Z,6.07
2019-02-22T06:00:24.556Z,5.53
2019-02-22T06:02:33.620Z,2.83
2019-02-22T06:04:38.723Z,6.60
2019-02-22T06:06:44.960Z,4.30
2019-02-22T06:08:51.239Z,7.93
2019-02-22T06:10:57.397Z,8.23
2019-02-22T06:13:03.658Z,6.23
2019-02-22T06:15:10.426Z,5.23
2019-02-22T06:17:16.629Z,4.97
2019-02-22T06:19:22.741Z,7.37
2019-02-22T06:21:28.901Z,8.07
2019-02-22T06:23:34.952Z,8.20
2019-02-22T06:25:41.233Z,5.73
2019-02-22T06:27:47.468Z,5.67
2019-02-22T06:29:53.531Z,7.50
2019-02-22T06:31:59.700Z,6.60
2019-02-22T06:34:07.511Z,6.80
2019-02-22T06:36:13.650Z,9.87
2019-02-22T06:38:19.909Z,11.67
2019-02-22T06:40:25.962Z,9.80
2019-02-22T06:42:32.218Z,7.10
2019-02-22T06:44:38.379Z,11.57
2019-02-22T06:46:44.530Z,11.60
2019-02-22T06:48:50.805Z,7.13
2019-02-22T06:50:58.081Z,8.90
2019-02-22T06:53:04.443Z,11.60
2019-02-22T06:55:10.700Z,4.67
2019-02-22T06:57:16.759Z,4.63
2019-02-22T06:59:22.994Z,5.80
2019-02-22T07:01:29.079Z,5.67
2019-02-22T07:03:35.339Z,11.53
2019-02-22T07:05:41.595Z,7.23
2019-02-22T07:07:48.067Z,6.17
2019-02-22T07:09:54.236Z,10.57
2019-02-22T07:12:02.012Z,5.97
2019-02-22T07:14:08.173Z,9.90
2019-02-22T07:16:14.339Z,11.67
2019-02-22T07:18:20.490Z,20.97
2019-02-22T07:20:26.739Z,8.07
2019-02-22T07:22:32.928Z,11.27
2019-02-22T07:24:39.064Z,11.17
2019-02-22T07:26:45.129Z,16.33
2019-02-22T07:28:51.387Z,9.00
2019-02-22T07:30:57.465Z,5.20
2019-02-22T07:33:03.689Z,7.37
2019-02-22T07:35:10.370Z,7.10
2019-02-22T07:37:16.650Z,11.27
2019-02-22T07:39:27.751Z,5.03
2019-02-22T07:41:31.889Z,12.33
2019-02-22T07:43:37.949Z,4.97
2019-02-22T07:45:44.158Z,5.40
2019-02-22T07:47:50.461Z,3.87
2019-02-22T07:49:56.656Z,5.87
2019-02-22T07:52:02.909Z,4.27
2019-02-22T07:54:09.166Z,4.93
2019-02-22T07:56:15.428Z,5.03
2019-02-22T07:58:21.890Z,11.97
2019-02-22T08:00:28.255Z,7.83
2019-02-22T08:02:34.542Z,5.77
2019-02-22T08:04:42.177Z,4.47
2019-02-22T08:06:49.479Z,4.97
2019-02-22T08:08:55.641Z,5.23
2019-02-22T08:11:02.809Z,11.67
2019-02-22T08:13:19.193Z,6.80
2019-02-22T08:15:17.902Z,5.23
2019-02-22T08:17:24.106Z,11.57
2019-02-22T08:19:30.333Z,6.20
2019-02-22T08:21:38.120Z,5.20
2019-02-22T08:23:44.271Z,10.63
2019-02-22T08:25:51.078Z,4.43
2019-02-22T08:27:57.422Z,6.73
2019-02-22T08:30:03.596Z,8.70
2019-02-22T08:32:10.950Z,4.47
2019-02-22T08:34:18.456Z,5.03
2019-02-22T08:36:24.377Z,6.90
2019-02-22T08:38:30.546Z,6.13
2019-02-22T08:40:36.625Z,7.27
2019-02-22T08:42:42.871Z,8.30
2019-02-22T08:44:49.256Z,3.77
2019-02-22T08:46:55.511Z,6.87
2019-02-22T08:49:01.770Z,9.77
2019-02-22T08:51:07.941Z,4.87
2019-02-22T08:53:14.112Z,4.57
2019-02-22T08:55:20.338Z,5.10
2019-02-22T08:57:26.582Z,5.53
2019-02-22T08:59:32.728Z,19.40
2019-02-22T09:01:39.946Z,6.27
2019-02-22T09:03:50.223Z,6.03
2019-02-22T09:05:53.778Z,6.40
2019-02-22T09:08:00.037Z,7.17
2019-02-22T09:10:11.015Z,6.87
2019-02-22T09:12:17.328Z,17.27
2019-02-22T09:14:23.656Z,7.97
2019-02-22T09:16:29.938Z,5.00
2019-02-22T09:18:36.178Z,8.57
2019-02-22T09:20:42.455Z,5.30
2019-02-22T09:22:50.229Z,11.10
2019-02-22T09:24:57.997Z,6.37
2019-02-22T09:27:04.172Z,8.57
2019-02-22T09:29:11.728Z,5.37
2019-02-22T09:31:17.571Z,6.80
2019-02-22T09:33:23.681Z,7.47
2019-02-22T09:35:29.905Z,13.33
2019-02-22T09:37:35.976Z,12.30
2019-02-22T09:39:42.250Z,15.80
2019-02-22T09:41:48.411Z,5.27
2019-02-22T09:43:55.852Z,12.40
2019-02-22T09:46:03.604Z,4.73
2019-02-22T09:48:09.737Z,9.77
2019-02-22T09:50:17.737Z,5.97
2019-02-22T09:52:23.816Z,42.57
2019-02-22T09:54:29.783Z,34.80
2019-02-22T09:56:35.908Z,7.40
2019-02-22T09:58:42.065Z,7.30
2019-02-22T10:00:48.216Z,9.90
2019-02-22T10:02:54.395Z,9.27
2019-02-22T10:05:00.646Z,4.40
2019-02-22T10:07:08.105Z,4.33
2019-02-22T10:09:14.271Z,2.93
2019-02-22T10:11:20.234Z,8.63
2019-02-22T10:13:26.270Z,5.37
2019-02-22T10:15:32.337Z,7.70
2019-02-22T10:17:39.042Z,5.50
2019-02-22T10:19:45.692Z,5.67
2019-02-22T10:21:51.916Z,3.63
2019-02-22T10:23:58.194Z,3.80
2019-02-22T10:26:04.215Z,3.83
2019-02-22T10:28:17.597Z,8.70
2019-02-22T10:30:21.354Z,5.17
2019-02-22T10:32:28.023Z,9.17
2019-02-22T10:34:35.121Z,9.13
2019-02-22T10:36:45.309Z,4.20
2019-02-22T10:38:50.398Z,6.20
2019-02-22T10:40:56.744Z,7.63
2019-02-22T10:43:02.936Z,6.43
2019-02-22T10:45:11.401Z,5.40
2019-02-22T10:47:17.544Z,1.70
2019-02-22T10:49:24.842Z,6.97
2019-02-22T10:51:31.056Z,6.47
2019-02-22T10:53:37.125Z,4.77
2019-02-22T10:55:44.495Z,9.70
2019-02-22T10:57:50.468Z,8.60
2019-02-22T10:59:56.610Z,4.10
2019-02-22T11:02:02.656Z,10.77
2019-02-22T11:04:08.928Z,6.00
2019-02-22T11:06:14.845Z,7.87
2019-02-22T11:08:21.439Z,7.23
2019-02-22T11:10:27.840Z,6.93
2019-02-22T11:12:34.055Z,6.03
2019-02-22T11:14:40.097Z,4.27
2019-02-22T11:16:46.548Z,2.33
2019-02-22T11:18:52.503Z,3.27
2019-02-22T11:20:58.553Z,4.80
2019-02-22T11:23:04.637Z,3.70
2019-02-22T11:25:16.378Z,3.70
2019-02-22T11:27:22.294Z,6.47
2019-02-22T11:29:28.262Z,4.40
2019-02-22T11:31:34.311Z,4.60
2019-02-22T11:33:40.294Z,3.63
2019-02-22T11:35:46.298Z,6.63
2019-02-22T11:37:52.463Z,3.23
2019-02-22T11:39:58.530Z,4.00
2019-02-22T11:42:04.788Z,13.03
2019-02-22T11:44:10.930Z,5.30
2019-02-22T11:46:16.958Z,6.77
2019-02-22T11:48:22.897Z,4.10
2019-02-22T11:50:28.824Z,7.90
2019-02-22T11:52:34.927Z,7.33
2019-02-22T11:54:41.036Z,8.70
2019-02-22T11:56:47.060Z,11.13
2019-02-22T11:58:53.226Z,5.77
2019-02-22T12:00:59.253Z,10.73
2019-02-22T12:03:21.229Z,8.87
2019-02-22T12:05:13.455Z,28.60
2019-02-22T12:07:19.611Z,12.23
2019-02-22T12:09:26.771Z,16.97
2019-02-22T12:11:32.835Z,4.40
2019-02-22T12:13:38.900Z,7.77
2019-02-22T12:15:47.927Z,14.70
2019-02-22T12:17:54.097Z,5.53
2019-02-22T12:20:00.364Z,27.73
2019-02-22T12:22:06.715Z,5.93
2019-02-22T12:24:12.766Z,7.00
2019-02-22T12:26:18.799Z,18.03
2019-02-22T12:28:24.696Z,7.03
2019-02-22T12:30:30.727Z,4.93
2019-02-22T12:32:39.482Z,6.03
2019-02-22T12:34:44.881Z,2.87
2019-02-22T12:36:51.055Z,6.70
2019-02-22T12:38:57.176Z,6.47
2019-02-22T12:41:03.240Z,4.97
2019-02-22T12:43:09.378Z,4.63
2019-02-22T12:45:15.768Z,3.93
2019-02-22T12:47:21.682Z,4.17
2019-02-22T12:49:27.858Z,4.60
2019-02-22T12:51:33.862Z,4.03
2019-02-22T12:53:51.659Z,8.60
2019-02-22T12:55:57.715Z,9.17
2019-02-22T12:58:03.756Z,7.13
2019-02-22T13:00:17.637Z,4.27
2019-02-22T13:02:23.710Z,5.97
2019-02-22T13:04:29.925Z,3.80
2019-02-22T13:06:35.933Z,7.70
2019-02-22T13:08:41.974Z,5.70
2019-02-22T13:10:48.309Z,12.13
2019-02-22T13:12:54.545Z,6.60
2019-02-22T13:15:00.725Z,8.27
2019-02-22T13:17:06.976Z,6.37
2019-02-22T13:19:13.111Z,7.57
2019-02-22T13:21:19.368Z,4.60
2019-02-22T13:23:25.579Z,4.23
2019-02-22T13:25:31.815Z,8.00
2019-02-22T13:27:37.959Z,5.93
2019-02-22T13:29:43.955Z,3.87
2019-02-22T13:31:49.963Z,6.70
2019-02-22T13:33:56.012Z,7.30
2019-02-22T13:36:02.190Z,6.47
2019-02-22T13:38:08.353Z,8.30
2019-02-22T13:40:17.382Z,19.93
2019-02-22T13:42:23.628Z,8.23
2019-02-22T13:44:29.809Z,3.53
2019-02-22T13:46:36.062Z,6.03
2019-02-22T13:48:42.322Z,3.93
2019-02-22T13:50:48.576Z,5.17
2019-02-22T13:52:54.835Z,8.20
2019-02-22T13:55:00.995Z,7.77
2019-02-22T13:57:08.895Z,5.77
2019-02-22T13:59:15.145Z,7.43
2019-02-22T14:01:21.295Z,8.23
2019-02-22T14:03:28.800Z,8.13
2019-02-22T14:05:34.971Z,14.60
2019-02-22T14:07:42.551Z,15.07
2019-02-22T14:09:49.644Z,46.23
2019-02-22T14:11:55.799Z,16.77
2019-02-22T14:14:02.052Z,15.43
2019-02-22T14:16:08.427Z,22.83
2019-02-22T14:18:14.558Z,6.93
2019-02-22T14:20:20.728Z,9.00
2019-02-22T14:22:27.006Z,14.47
2019-02-22T14:24:34.840Z,4.40
2019-02-22T14:26:41.140Z,5.40
2019-02-22T14:28:47.312Z,11.43
2019-02-22T14:30:53.593Z,9.20
2019-02-22T14:32:59.842Z,6.13
2019-02-22T14:35:07.622Z,5.73
2019-02-22T14:37:13.926Z,16.40
2019-02-22T14:39:20.441Z,6.77
2019-02-22T14:41:27.998Z,5.03
2019-02-22T14:43:34.314Z,3.60
2019-02-22T14:45:48.952Z,9.63
2019-02-22T14:47:48.970Z,6.33
2019-02-22T14:49:55.248Z,8.03
2019-02-22T14:52:01.601Z,7.27
2019-02-22T14:54:08.062Z,6.57
2019-02-22T14:56:14.778Z,6.17
2019-02-22T14:58:21.018Z,27.47
2019-02-22T15:00:30.396Z,18.27
2019-02-22T15:02:36.996Z,30.83
2019-02-22T15:04:45.089Z,24.33
2019-02-22T15:06:51.345Z,6.80
2019-02-22T15:08:58.963Z,8.50
2019-02-22T15:11:05.647Z,8.67
2019-02-22T15:13:12.492Z,7.23
2019-02-22T15:15:22.733Z,10.33
2019-02-22T15:17:30.751Z,17.83
2019-02-22T15:19:37.000Z,12.23
2019-02-22T15:21:44.521Z,8.47
2019-02-22T15:23:50.852Z,8.87
2019-02-22T15:26:04.087Z,10.17
2019-02-22T15:28:12.139Z,9.80
2019-02-22T15:30:18.858Z,14.57
2019-02-22T15:32:25.224Z,10.30
2019-02-22T15:34:31.482Z,8.53
2019-02-22T15:36:37.646Z,4.17
2019-02-22T15:38:45.070Z,5.27
2019-02-22T15:40:52.541Z,7.77
2019-02-22T15:43:00.222Z,10.47
2019-02-22T15:45:10.767Z,9.83
2019-02-22T15:47:17.039Z,19.47
2019-02-22T15:49:23.490Z,8.43
2019-02-22T15:51:31.202Z,9.47
2019-02-22T15:53:38.963Z,9.17
2019-02-22T15:55:45.356Z,12.40
2019-02-22T15:57:53.141Z,43.80
2019-02-22T15:59:59.712Z,11.03
2019-02-22T16:02:08.727Z,22.23
2019-02-22T16:04:21.953Z,22.13
2019-02-22T16:06:34.684Z,18.03
2019-02-22T16:08:41.178Z,20.37
2019-02-22T16:10:47.597Z,16.30
2019-02-22T16:12:54.064Z,15.87
2019-02-22T16:15:00.337Z,19.93
2019-02-22T16:17:08.568Z,41.07
2019-02-22T16:19:14.779Z,18.13
2019-02-22T16:21:22.309Z,18.87
2019-02-22T16:23:29.176Z,25.10
2019-02-22T16:25:36.006Z,20.77
2019-02-22T16:27:42.482Z,18.97
2019-02-22T16:29:50.191Z,21.70
2019-02-22T16:31:58.182Z,23.53
2019-02-22T16:34:04.749Z,34.50
2019-02-22T16:36:11.470Z,56.13
2019-02-22T16:38:17.707Z,43.17
2019-02-22T16:40:23.940Z,18.27
2019-02-22T16:42:30.215Z,29.10
2019-02-22T16:44:38.081Z,27.57
2019-02-22T16:46:44.899Z,20.90
2019-02-22T16:48:51.312Z,21.70
2019-02-22T16:50:57.491Z,22.90
2019-02-22T16:53:03.575Z,31.10
2019-02-22T16:55:19.349Z,39.33
2019-02-22T16:57:25.879Z,39.97
2019-02-22T16:59:32.036Z,35.57
2019-02-22T17:01:39.990Z,54.43
2019-02-22T17:03:50.402Z,37.10
2019-02-22T17:05:58.118Z,39.53
2019-02-22T17:08:04.591Z,41.83
2019-02-22T17:10:12.744Z,41.47
2019-02-22T17:12:20.185Z,43.10
2019-02-22T17:14:26.597Z,29.67
2019-02-22T17:16:33.011Z,26.63
2019-02-22T17:18:41.214Z,25.90
2019-02-22T17:20:47.670Z,22.57
2019-02-22T17:22:55.460Z,26.03
2019-02-22T17:25:03.192Z,25.17
2019-02-22T17:27:09.860Z,27.43
2019-02-22T17:29:17.832Z,23.70
2019-02-22T17:31:24.183Z,16.97
2019-02-22T17:33:33.702Z,18.97
2019-02-22T17:35:39.982Z,27.63
2019-02-22T17:37:46.863Z,23.00
2019-02-22T17:39:53.232Z,17.43
2019-02-22T17:42:00.501Z,21.30
2019-02-22T17:44:06.867Z,29.10
2019-02-22T17:46:13.350Z,27.93
2019-02-22T17:48:19.889Z,25.80
2019-02-22T17:50:26.351Z,18.67
2019-02-22T17:52:33.144Z,35.90
2019-02-22T17:54:39.579Z,20.27
2019-02-22T17:56:47.501Z,30.30
2019-02-22T17:58:54.389Z,18.90
2019-02-22T18:01:02.790Z,33.03
2019-02-22T18:03:09.331Z,20.27
2019-02-22T18:05:15.864Z,26.87
2019-02-22T18:07:22.197Z,38.77
2019-02-22T18:09:28.646Z,47.20
2019-02-22T18:11:35.327Z,46.20
2019-02-22T18:13:42.203Z,90.27
2019-02-22T18:15:48.661Z,54.50
2019-02-22T18:17:57.305Z,42.00
2019-02-22T18:20:08.660Z,45.93
2019-02-22T18:22:25.211Z,55.00
2019-02-22T18:24:24.613Z,27.57
2019-02-22T18:26:31.214Z,24.23
2019-02-22T18:28:37.901Z,22.53
2019-02-22T18:30:45.983Z,22.43
2019-02-22T18:32:52.454Z,14.63
2019-02-22T18:34:58.677Z,29.33
2019-02-22T18:37:05.233Z,26.07
2019-02-22T18:39:11.948Z,20.50
2019-02-22T18:41:18.678Z,23.53
2019-02-22T18:43:26.351Z,25.43
2019-02-22T18:45:34.131Z,31.97
2019-02-22T18:47:40.574Z,46.90
2019-02-22T18:49:47.263Z,39.93
2019-02-22T18:51:56.374Z,24.97
2019-02-22T18:54:02.900Z,36.70
2019-02-22T18:56:09.520Z,27.23
2019-02-22T18:58:16.131Z,24.03
2019-02-22T19:00:25.557Z,41.57
2019-02-22T19:02:32.088Z,26.20
2019-02-22T19:04:38.514Z,25.23
2019-02-22T19:06:49.621Z,17.83
2019-02-22T19:08:59.530Z,19.07
2019-02-22T19:11:07.848Z,25.00
2019-02-22T19:13:15.544Z,21.00
2019-02-22T19:15:24.297Z,29.30
2019-02-22T19:17:31.295Z,19.97
2019-02-22T19:19:37.780Z,17.13
2019-02-22T19:21:44.618Z,18.57
2019-02-22T19:23:51.961Z,22.03
2019-02-22T19:25:58.699Z,24.60
2019-02-22T19:28:06.902Z,39.97
2019-02-22T19:30:23.472Z,35.23
2019-02-22T19:32:30.301Z,56.30
2019-02-22T19:34:36.813Z,140.53
2019-02-22T19:36:44.912Z,114.33
2019-02-22T19:38:51.480Z,59.33
2019-02-22T19:40:59.635Z,53.67
2019-02-22T19:43:07.294Z,65.77
2019-02-22T19:45:13.952Z,63.17
2019-02-22T19:47:22.112Z,111.40
2019-02-22T19:49:31.832Z,53.33
2019-02-22T19:51:38.513Z,44.67
2019-02-22T19:53:45.415Z,40.23
2019-02-22T19:55:52.457Z,33.57
2019-02-22T19:58:00.693Z,38.63
2019-02-22T20:00:12.194Z,39.90
2019-02-22T20:02:18.832Z,85.70
2019-02-22T20:04:25.759Z,39.17
2019-02-22T20:06:32.476Z,41.07
2019-02-22T20:08:40.172Z,31.73
2019-02-22T20:10:48.095Z,30.53
2019-02-22T20:12:55.673Z,33.03
2019-02-22T20:15:02.599Z,33.80
2019-02-22T20:17:10.841Z,23.53
2019-02-22T20:19:17.317Z,28.03
2019-02-22T20:21:25.439Z,27.63
2019-02-22T20:23:32.195Z,25.80
2019-02-22T20:25:42.054Z,25.77
2019-02-22T20:27:50.355Z,25.30
2019-02-22T20:29:57.040Z,26.83
2019-02-22T20:32:05.313Z,21.53
2019-02-22T20:34:12.103Z,24.67
2019-02-22T20:36:27.979Z,23.47
2019-02-22T20:38:27.992Z,16.43
2019-02-22T20:40:34.712Z,22.23
2019-02-22T20:42:41.347Z,19.20
2019-02-22T20:44:50.759Z,22.60
2019-02-22T20:46:57.415Z,23.97
2019-02-22T20:49:06.638Z,26.80
2019-02-22T20:51:13.072Z,24.00
2019-02-22T20:53:19.833Z,21.17
2019-02-22T20:55:26.570Z,22.03
2019-02-22T20:57:34.814Z,22.53
2019-02-22T20:59:41.692Z,24.93
2019-02-22T21:01:49.051Z,25.20
2019-02-22T21:03:55.727Z,19.73
2019-02-22T21:06:04.237Z,19.40
2019-02-22T21:08:12.045Z,21.73
2019-02-22T21:10:22.435Z,21.20
2019-02-22T21:12:30.370Z,18.93
2019-02-22T21:14:37.251Z,17.70
2019-02-22T21:16:43.578Z,24.13
2019-02-22T21:18:51.565Z,17.37
2019-02-22T21:20:59.672Z,28.00
2019-02-22T21:23:06.090Z,19.37
2019-02-22T21:25:13.295Z,19.20
2019-02-22T21:27:22.233Z,13.67
2019-02-22T21:29:30.236Z,18.70
2019-02-22T21:31:38.176Z,14.50
2019-02-22T21:33:46.359Z,28.13
2019-02-22T21:35:53.015Z,18.63
2019-02-22T21:37:59.456Z,19.70
2019-02-22T21:40:08.451Z,17.80
2019-02-22T21:42:20.095Z,17.30
2019-02-22T21:44:24.085Z,15.70
2019-02-22T21:46:32.284Z,14.97
2019-02-22T21:48:38.763Z,20.07
2019-02-22T21:50:45.343Z,19.67
2019-02-22T21:52:52.204Z,22.53
2019-02-22T21:54:59.893Z,17.23
2019-02-22T21:57:07.762Z,20.03
2019-02-22T21:59:15.605Z,21.47
2019-02-22T22:01:26.277Z,19.17
2019-02-22T22:03:32.603Z,23.07
2019-02-22T22:05:40.103Z,22.00
2019-02-22T22:07:46.481Z,17.80
2019-02-22T22:09:54.268Z,22.43
2019-02-22T22:12:00.524Z,36.57
2019-02-22T22:14:07.509Z,41.23
2019-02-22T22:16:13.749Z,54.30
2019-02-22T22:18:22.000Z,39.77
2019-02-22T22:20:28.217Z,37.50
2019-02-22T22:22:34.376Z,42.20
2019-02-22T22:24:40.537Z,29.17
2019-02-22T22:26:46.806Z,36.03
2019-02-22T22:28:53.060Z,34.37
2019-02-22T22:30:59.219Z,32.97
2019-02-22T22:33:05.473Z,26.73
2019-02-22T22:35:17.584Z,27.67
2019-02-22T22:37:23.837Z,30.90
2019-02-22T22:39:30.086Z,25.03
2019-02-22T22:41:36.272Z,19.43
2019-02-22T22:43:42.390Z,17.57
2019-02-22T22:45:48.455Z,18.23
2019-02-22T22:47:54.615Z,16.40
2019-02-22T22:50:00.804Z,21.20
2019-02-22T22:52:07.028Z,15.10
2019-02-22T22:54:13.295Z,12.10
2019-02-22T22:56:19.464Z,18.73
2019-02-22T22:58:25.825Z,18.03
2019-02-22T23:00:53.573Z,18.43
2019-02-22T23:03:00.044Z,21.77
2019-02-22T23:05:08.768Z,16.57
2019-02-22T23:07:15.025Z,20.97
2019-02-22T23:09:22.306Z,17.20
2019-02-22T23:11:28.575Z,17.03
2019-02-22T23:13:34.822Z,20.77
2019-02-22T23:15:40.993Z,22.90
2019-02-22T23:17:48.361Z,19.03
2019-02-22T23:19:54.638Z,19.43
2019-02-22T23:22:00.895Z,19.03
2019-02-22T23:24:07.143Z,26.27
2019-02-22T23:26:13.295Z,18.67
2019-02-22T23:28:19.465Z,22.07
2019-02-22T23:30:25.621Z,21.37
2019-02-22T23:32:31.882Z,25.70
2019-02-22T23:34:38.347Z,22.07
2019-02-22T23:36:44.506Z,29.13
2019-02-22T23:38:50.876Z,23.87
2019-02-22T23:40:57.023Z,19.57
2019-02-22T23:43:03.175Z,22.63
2019-02-22T23:45:09.888Z,21.83
2019-02-22T23:47:16.050Z,24.87
2019-02-22T23:49:22.217Z,24.53
2019-02-22T23:51:28.437Z,18.93
2019-02-22T23:53:34.919Z,22.00
2019-02-22T23:55:42.246Z,22.70
2019-02-22T23:57:48.334Z,24.50
2019-02-22T23:59:54.608Z,17.50
